Time;durP1;ratioP1;P1;durP2;ratioP2;P2;SDS_P1;SDS_P2;PMS_P1;PMS_P2;Temp;Humidity;BMP_temperature;BMP_pressure;BME280_temperature;BME280_humidity;BME280_pressure;Samples;Min_cycle;Max_cycle;Signal;HPM_P1;HPM_P2
2022/02/08 00:01:06;;;;;;;;;;;9.30;99.90;;;;;;5031758;28;20292;-79
2022/02/08 00:03:31;;;;;;;;;;;9.30;99.90;;;;;;5033324;28;19987;-79
2022/02/08 00:08:28;;;;;;;;;;;8.80;99.90;;;;;;5033022;28;19956;-79
2022/02/08 00:10:54;;;;;;;;;;;8.90;99.90;;;;;;5033362;28;19948;-79
2022/02/08 00:13:19;;;;;;;;;;;8.90;99.90;;;;;;5033367;28;19909;-79
2022/02/08 00:15:45;;;;;;;;;;;8.80;99.90;;;;;;5031715;28;20392;-80
2022/02/08 00:18:10;;;;;;;;;;;8.80;99.90;;;;;;5033535;28;19917;-80
2022/02/08 00:20:36;;;;;;;;;;;8.80;99.90;;;;;;5033422;28;19917;-80
2022/02/08 00:23:02;;;;;;;;;;;9.00;99.90;;;;;;5033340;28;20491;-80
2022/02/08 00:25:27;;;;;;;;;;;8.90;99.90;;;;;;5033129;28;19917;-79
2022/02/08 00:27:53;;;;;;;;;;;9.00;99.90;;;;;;5033041;28;19910;-80
2022/02/08 00:30:19;;;;;;;;;;;9.00;99.90;;;;;;5033231;28;20313;-78
2022/02/08 00:32:44;;;;;;;;;;;8.80;99.90;;;;;;5033041;28;19909;-79
2022/02/08 00:35:10;;;;;;;;;;;8.70;99.90;;;;;;5033204;28;19917;-80
2022/02/08 00:37:35;;;;;;;;;;;8.90;99.90;;;;;;5031668;28;20340;-79
2022/02/08 00:40:01;;;;;;;;;;;8.90;99.90;;;;;;5032987;28;19953;-79
2022/02/08 00:42:27;;;;;;;;;;;8.80;99.90;;;;;;5033291;28;20000;-79
2022/02/08 00:45:08;;;;;;;;;;;8.90;99.90;;;;;;5033296;28;20011;-79
2022/02/08 00:47:39;;;;;;;;;;;8.90;99.90;;;;;;5035103;28;19909;-80
2022/02/08 00:50:10;;;;;;;;;;;9.10;99.90;;;;;;5036840;28;20000;-79
2022/02/08 00:52:36;;;;;;;;;;;9.30;99.90;;;;;;5036742;28;19913;-79
2022/02/08 00:55:03;;;;;;;;;;;9.20;99.90;;;;;;5036603;28;19963;-79
2022/02/08 00:57:28;;;;;;;;;;;9.00;99.90;;;;;;5036385;28;19913;-80
2022/02/08 00:59:54;;;;;;;;;;;9.20;99.90;;;;;;5035148;28;19915;-78
2022/02/08 01:02:20;;;;;;;;;;;9.30;99.90;;;;;;5036438;28;19909;-79
2022/02/08 01:04:55;;;;;;;;;;;9.40;99.90;;;;;;5036384;28;20365;-79
2022/02/08 01:07:21;;;;;;;;;;;9.40;99.90;;;;;;5036467;28;20377;-80
2022/02/08 01:12:12;;;;;;;;;;;9.50;99.90;;;;;;5036503;28;19913;-79
2022/02/08 01:14:41;;;;;;;;;;;9.60;99.90;;;;;;5036460;28;19910;-80
2022/02/08 01:17:07;;;;;;;;;;;9.50;99.90;;;;;;5050799;28;19929;-80
2022/02/08 01:19:33;;;;;;;;;;;9.30;99.90;;;;;;5055970;28;19912;-79
2022/02/08 01:21:59;;;;;;;;;;;9.30;99.90;;;;;;5055925;28;19963;-79
2022/02/08 01:24:24;;;;;;;;;;;9.40;99.90;;;;;;5055907;28;19912;-79
2022/02/08 01:26:59;;;;;;;;;;;9.40;99.90;;;;;;5056110;28;19909;-80
2022/02/08 01:29:38;;;;;;;;;;;9.30;99.90;;;;;;5037703;28;19908;-81
2022/02/08 01:40:11;;;;;;;;;;;9.20;99.90;;;;;;5055640;28;19920;-80
2022/02/08 01:42:48;;;;;;;;;;;9.30;99.90;;;;;;5037403;28;19909;-79
2022/02/08 01:47:50;;;;;;;;;;;9.10;99.90;;;;;;5055748;28;19916;-79
2022/02/08 01:50:17;;;;;;;;;;;9.20;99.90;;;;;;5055571;28;19909;-79
2022/02/08 01:52:43;;;;;;;;;;;9.20;99.90;;;;;;5037373;28;19966;-79
2022/02/08 01:55:10;;;;;;;;;;;9.20;99.90;;;;;;5055284;28;20365;-79
2022/02/08 01:57:36;;;;;;;;;;;9.20;99.90;;;;;;5054204;28;19913;-79
2022/02/08 02:00:03;;;;;;;;;;;9.10;99.90;;;;;;5037316;28;19908;-80
2022/02/08 02:02:29;;;;;;;;;;;9.20;99.90;;;;;;5054613;28;20292;-80
2022/02/08 02:04:54;;;;;;;;;;;9.20;99.90;;;;;;5037254;28;19938;-79
2022/02/08 02:07:20;;;;;;;;;;;9.10;99.90;;;;;;5055103;28;19932;-80
2022/02/08 02:09:46;;;;;;;;;;;9.10;99.90;;;;;;5054996;28;19915;-79
2022/02/08 02:12:12;;;;;;;;;;;9.20;99.90;;;;;;5055418;28;19909;-79
2022/02/08 02:14:38;;;;;;;;;;;9.20;99.90;;;;;;5054930;28;19955;-79
2022/02/08 02:17:04;;;;;;;;;;;9.20;99.90;;;;;;5054678;28;20014;-80
2022/02/08 02:19:30;;;;;;;;;;;9.30;99.90;;;;;;5054865;28;19909;-79
2022/02/08 02:21:57;;;;;;;;;;;9.30;99.90;;;;;;5054775;28;19959;-81
2022/02/08 02:24:23;;;;;;;;;;;9.40;99.90;;;;;;5054904;28;20016;-79
2022/02/08 02:26:49;;;;;;;;;;;9.40;99.90;;;;;;5036829;28;19944;-80
2022/02/08 02:29:15;;;;;;;;;;;9.30;99.90;;;;;;5054815;28;20384;-79
2022/02/08 02:31:42;;;;;;;;;;;9.30;99.90;;;;;;5054581;28;20384;-79
2022/02/08 02:34:07;;;;;;;;;;;9.20;99.90;;;;;;5054573;28;20365;-79
2022/02/08 02:36:33;;;;;;;;;;;9.30;99.90;;;;;;5054537;28;19909;-80
2022/02/08 02:38:59;;;;;;;;;;;9.40;99.90;;;;;;5054359;28;20361;-79
2022/02/08 02:41:24;;;;;;;;;;;9.40;99.90;;;;;;5054628;28;20361;-79
2022/02/08 02:43:50;;;;;;;;;;;9.40;99.90;;;;;;5054355;28;20259;-80
2022/02/08 02:46:15;;;;;;;;;;;9.40;99.90;;;;;;5054369;28;19908;-79
2022/02/08 02:48:41;;;;;;;;;;;9.30;99.90;;;;;;5054279;28;19915;-79
2022/02/08 02:51:07;;;;;;;;;;;9.30;99.90;;;;;;5054237;28;20379;-80
2022/02/08 02:53:32;;;;;;;;;;;9.30;99.90;;;;;;5054373;28;19919;-79
2022/02/08 02:55:58;;;;;;;;;;;9.30;99.90;;;;;;5054134;28;20365;-80
2022/02/08 02:58:28;;;;;;;;;;;9.30;99.90;;;;;;5054143;28;19922;-79
2022/02/08 03:01:15;;;;;;;;;;;9.30;99.90;;;;;;5036181;28;19909;-80
2022/02/08 03:19:49;;;;;;;;;;;9.50;99.90;;;;;;5053476;28;19931;-80
2022/02/08 03:22:15;;;;;;;;;;;9.70;99.90;;;;;;5053873;28;20375;-79
2022/02/08 03:24:40;;;;;;;;;;;9.70;99.90;;;;;;5053729;28;19915;-79
2022/02/08 03:27:06;;;;;;;;;;;9.90;99.90;;;;;;5053595;28;19932;-80
2022/02/08 03:29:32;;;;;;;;;;;9.90;99.90;;;;;;5053612;28;19915;-79
2022/02/08 03:31:57;;;;;;;;;;;9.70;99.90;;;;;;5053596;28;20389;-79
2022/02/08 03:34:23;;;;;;;;;;;9.80;99.90;;;;;;5053708;28;19913;-79
2022/02/08 03:36:50;;;;;;;;;;;9.80;99.90;;;;;;5053541;28;20431;-80
2022/02/08 03:39:23;;;;;;;;;;;9.80;99.90;;;;;;5053705;28;20324;-79
2022/02/08 03:41:54;;;;;;;;;;;9.80;99.90;;;;;;5053838;28;19908;-79
2022/02/08 03:44:29;;;;;;;;;;;9.80;99.90;;;;;;5035529;28;20319;-79
2022/02/08 03:46:55;;;;;;;;;;;9.90;99.90;;;;;;5035278;28;19915;-80
2022/02/08 03:49:20;;;;;;;;;;;10.00;99.90;;;;;;5053309;28;20358;-79
2022/02/08 03:51:51;;;;;;;;;;;10.00;99.90;;;;;;5053365;28;19913;-80
2022/02/08 03:54:18;;;;;;;;;;;9.90;99.90;;;;;;5035357;28;20050;-79
2022/02/08 03:56:44;;;;;;;;;;;10.00;99.90;;;;;;5053243;28;20046;-79
2022/02/08 03:59:11;;;;;;;;;;;9.90;99.90;;;;;;5053231;28;20032;-79
2022/02/08 04:06:28;;;;;;;;;;;9.90;99.90;;;;;;5053457;28;20007;-79
2022/02/08 04:08:57;;;;;;;;;;;9.90;99.90;;;;;;5053154;28;19916;-80
2022/02/08 04:11:23;;;;;;;;;;;9.80;99.90;;;;;;5053072;28;19928;-79
2022/02/08 04:13:57;;;;;;;;;;;9.90;99.90;;;;;;5053143;28;19909;-80
2022/02/08 04:16:28;;;;;;;;;;;10.10;99.90;;;;;;5053195;28;19932;-80
2022/02/08 04:50:39;;;;;;;;;;;9.90;99.90;;;;;;5028082;28;19986;-79
2022/02/08 04:53:13;;;;;;;;;;;9.80;99.90;;;;;;5056440;28;19908;-79
2022/02/08 04:55:55;;;;;;;;;;;9.80;99.90;;;;;;5038257;28;20293;-80
2022/02/08 05:01:04;;;;;;;;;;;9.90;99.90;;;;;;5056324;28;19916;-79
2022/02/08 05:41:52;;;;;;;;;;;9.70;99.90;;;;;;5055569;28;19923;-79
2022/02/08 05:44:40;;;;;;;;;;;9.60;99.90;;;;;;5055801;28;19909;-80
2022/02/08 05:47:06;;;;;;;;;;;9.40;99.90;;;;;;5037322;28;19909;-79
2022/02/08 05:49:44;;;;;;;;;;;9.40;99.90;;;;;;5055693;28;19931;-80
2022/02/08 05:54:39;;;;;;;;;;;9.40;99.90;;;;;;5055272;28;19916;-81
2022/02/08 05:57:05;;;;;;;;;;;9.40;99.90;;;;;;5055237;28;19908;-79
2022/02/08 05:59:31;;;;;;;;;;;9.40;99.90;;;;;;5055345;28;19909;-79
2022/02/08 06:01:56;;;;;;;;;;;9.70;99.90;;;;;;5055425;28;19988;-79
2022/02/08 06:04:22;;;;;;;;;;;9.70;99.90;;;;;;5055242;28;20361;-79
2022/02/08 06:06:48;;;;;;;;;;;9.80;99.90;;;;;;5037157;28;19916;-79
2022/02/08 06:09:13;;;;;;;;;;;10.00;99.90;;;;;;5055058;28;19909;-80
2022/02/08 06:11:40;;;;;;;;;;;9.80;99.90;;;;;;5037200;28;19916;-80
2022/02/08 06:14:06;;;;;;;;;;;9.80;99.90;;;;;;5054948;28;19909;-79
2022/02/08 06:16:32;;;;;;;;;;;9.90;99.90;;;;;;5054758;28;20403;-79
2022/02/08 06:18:57;;;;;;;;;;;10.00;99.90;;;;;;5036909;28;20397;-79
2022/02/08 06:21:23;;;;;;;;;;;9.90;99.90;;;;;;5054782;28;19913;-80
2022/02/08 06:23:49;;;;;;;;;;;9.70;99.90;;;;;;5054787;28;19912;-79
2022/02/08 06:26:15;;;;;;;;;;;9.60;99.90;;;;;;5054743;28;20016;-80
2022/02/08 06:28:41;;;;;;;;;;;9.80;99.90;;;;;;5054764;28;19963;-80
2022/02/08 06:31:07;;;;;;;;;;;9.80;99.90;;;;;;5054657;28;19916;-80
2022/02/08 06:33:33;;;;;;;;;;;9.40;99.90;;;;;;5054609;28;20410;-79
2022/02/08 06:35:59;;;;;;;;;;;9.50;99.90;;;;;;5055082;28;19909;-79
2022/02/08 06:38:24;;;;;;;;;;;9.40;99.90;;;;;;5054492;28;20007;-79
2022/02/08 06:40:53;;;;;;;;;;;9.40;99.90;;;;;;5054541;28;20304;-79
2022/02/08 06:43:20;;;;;;;;;;;9.40;99.90;;;;;;5053972;28;19916;-79
2022/02/08 06:45:45;;;;;;;;;;;9.50;99.90;;;;;;5054384;28;20261;-80
2022/02/08 06:48:11;;;;;;;;;;;9.60;99.90;;;;;;5054643;28;20038;-79
2022/02/08 06:50:37;;;;;;;;;;;9.40;99.90;;;;;;5054415;28;19939;-80
2022/02/08 06:53:03;;;;;;;;;;;9.50;99.90;;;;;;5054261;28;20377;-80
2022/02/08 06:55:29;;;;;;;;;;;9.30;99.90;;;;;;5054221;28;19909;-79
2022/02/08 06:58:06;;;;;;;;;;;9.50;99.90;;;;;;5054081;28;20350;-79
2022/02/08 07:00:38;;;;;;;;;;;9.60;99.90;;;;;;5035959;28;20392;-78
2022/02/08 07:03:09;;;;;;;;;;;9.60;99.90;;;;;;5054199;28;19913;-80
2022/02/08 07:05:34;;;;;;;;;;;9.50;99.90;;;;;;5036110;28;19909;-79
2022/02/08 07:08:00;;;;;;;;;;;9.30;99.90;;;;;;5054146;28;19986;-80
2022/02/08 07:10:27;;;;;;;;;;;9.20;99.90;;;;;;5036021;28;20385;-80
2022/02/08 07:12:53;;;;;;;;;;;9.00;99.90;;;;;;5053899;28;19948;-78
2022/02/08 07:15:20;;;;;;;;;;;9.10;99.90;;;;;;5053949;28;20377;-79
2022/02/08 07:17:45;;;;;;;;;;;9.30;99.90;;;;;;5053738;28;19986;-79
2022/02/08 07:20:11;;;;;;;;;;;9.30;99.90;;;;;;5054357;28;20361;-79
2022/02/08 07:22:37;;;;;;;;;;;9.20;99.90;;;;;;5053871;28;19910;-80
2022/02/08 07:25:03;;;;;;;;;;;9.20;99.90;;;;;;5035755;28;20392;-79
2022/02/08 07:27:28;;;;;;;;;;;9.10;99.90;;;;;;5053577;28;19995;-79
2022/02/08 07:29:55;;;;;;;;;;;9.10;99.90;;;;;;5053629;28;19949;-80
2022/02/08 07:32:35;;;;;;;;;;;9.10;99.90;;;;;;5053577;28;20007;-80
2022/02/08 07:35:24;;;;;;;;;;;9.00;99.90;;;;;;5053644;28;19970;-80
2022/02/08 07:40:41;;;;;;;;;;;9.10;99.90;;;;;;5053489;28;19915;-79
2022/02/08 07:43:07;;;;;;;;;;;9.00;99.90;;;;;;5053764;28;19916;-79
2022/02/08 07:45:32;;;;;;;;;;;9.20;99.90;;;;;;5053321;28;20290;-79
2022/02/08 07:47:58;;;;;;;;;;;9.30;99.90;;;;;;5053398;28;19909;-80
2022/02/08 07:50:25;;;;;;;;;;;9.40;99.90;;;;;;5035451;28;19908;-79
2022/02/08 07:52:51;;;;;;;;;;;9.40;99.90;;;;;;5053420;28;19916;-80
2022/02/08 07:55:17;;;;;;;;;;;9.30;99.90;;;;;;5034659;28;20380;-79
2022/02/08 07:57:43;;;;;;;;;;;9.50;99.90;;;;;;5035297;28;20340;-79
2022/02/08 08:00:09;;;;;;;;;;;9.40;99.90;;;;;;5053404;28;19913;-79
2022/02/08 08:02:36;;;;;;;;;;;9.20;99.90;;;;;;5053457;28;19966;-79
2022/02/08 08:05:02;;;;;;;;;;;9.50;99.90;;;;;;5053133;28;20304;-79
2022/02/08 08:07:28;;;;;;;;;;;9.20;99.90;;;;;;5053065;28;19909;-79
2022/02/08 08:09:53;;;;;;;;;;;9.10;99.90;;;;;;5053167;28;20431;-79
2022/02/08 08:12:21;;;;;;;;;;;8.90;99.90;;;;;;5053182;28;19909;-80
2022/02/08 08:14:47;;;;;;;;;;;9.10;99.90;;;;;;5035182;28;19909;-79
2022/02/08 08:19:54;;;;;;;;;;;9.40;99.90;;;;;;5053266;28;19909;-79
2022/02/08 08:22:21;;;;;;;;;;;9.30;99.90;;;;;;5053230;28;19908;-80
2022/02/08 08:24:47;;;;;;;;;;;9.20;99.90;;;;;;5035193;28;19909;-79
2022/02/08 08:27:13;;;;;;;;;;;9.40;99.90;;;;;;5053113;28;19915;-80
2022/02/08 08:29:39;;;;;;;;;;;9.40;99.90;;;;;;5053214;28;19908;-79
2022/02/08 08:32:05;;;;;;;;;;;9.40;99.90;;;;;;5053148;28;19915;-80
2022/02/08 08:34:32;;;;;;;;;;;9.20;99.90;;;;;;5053035;28;19908;-80
2022/02/08 08:36:58;;;;;;;;;;;9.30;99.90;;;;;;5052839;28;19915;-79
2022/02/08 08:39:28;;;;;;;;;;;9.40;99.90;;;;;;5052885;28;19909;-79
2022/02/08 08:44:56;;;;;;;;;;;9.50;99.90;;;;;;5053066;28;19909;-80
2022/02/08 08:50:43;;;;;;;;;;;9.60;99.90;;;;;;5052752;28;19966;-79
2022/02/08 08:53:07;;;;;;;;;;;9.70;99.90;;;;;;5052647;28;19916;-79
2022/02/08 08:55:32;;;;;;;;;;;9.70;99.90;;;;;;5034915;28;20001;-80
2022/02/08 08:57:59;;;;;;;;;;;10.10;99.90;;;;;;5052695;28;19963;-80
2022/02/08 09:00:24;;;;;;;;;;;10.40;99.90;;;;;;5034735;28;19913;-80
2022/02/08 09:02:50;;;;;;;;;;;10.30;99.90;;;;;;5052728;28;20468;-80
2022/02/08 09:05:16;;;;;;;;;;;10.60;99.90;;;;;;5034810;28;19908;-80
2022/02/08 09:07:43;;;;;;;;;;;10.60;99.90;;;;;;5055725;28;19955;-80
2022/02/08 09:10:11;;;;;;;;;;;10.40;99.90;;;;;;5056550;28;19915;-80
2022/02/08 09:13:26;;;;;;;;;;;10.30;99.90;;;;;;5056170;28;19909;-80
2022/02/08 09:23:41;;;;;;;;;;;10.70;99.90;;;;;;5056543;28;19967;-80
2022/02/08 09:31:03;;;;;;;;;;;10.70;99.90;;;;;;5056159;28;19909;-80
2022/02/08 09:33:29;;;;;;;;;;;10.40;99.90;;;;;;5056171;28;19916;-80
2022/02/08 09:35:55;;;;;;;;;;;10.20;99.90;;;;;;5055744;28;19952;-80
2022/02/08 09:38:21;;;;;;;;;;;10.30;99.90;;;;;;5055696;28;19912;-79
2022/02/08 09:40:48;;;;;;;;;;;10.40;99.90;;;;;;5055650;28;20285;-79
2022/02/08 09:43:14;;;;;;;;;;;10.60;99.90;;;;;;5055671;28;19916;-79
2022/02/08 09:45:45;;;;;;;;;;;10.40;99.90;;;;;;5055727;28;19931;-79
2022/02/08 09:48:17;;;;;;;;;;;10.40;99.90;;;;;;5055515;28;20400;-79
2022/02/08 09:50:43;;;;;;;;;;;10.20;99.90;;;;;;5055565;28;19916;-79
2022/02/08 09:53:13;;;;;;;;;;;10.20;99.90;;;;;;5037514;28;19909;-79
2022/02/08 09:55:41;;;;;;;;;;;10.10;99.90;;;;;;5037493;28;19916;-79
2022/02/08 09:58:07;;;;;;;;;;;10.00;99.90;;;;;;5055572;28;19913;-79
2022/02/08 10:00:34;;;;;;;;;;;10.20;99.90;;;;;;5055363;28;20365;-79
2022/02/08 10:03:04;;;;;;;;;;;10.10;99.90;;;;;;5055255;28;19909;-79
2022/02/08 10:05:39;;;;;;;;;;;9.80;99.90;;;;;;5055398;28;19915;-79
2022/02/08 10:08:07;;;;;;;;;;;9.80;99.90;;;;;;5055554;28;19909;-79
2022/02/08 10:10:33;;;;;;;;;;;10.00;99.90;;;;;;5055057;28;19939;-79
2022/02/08 10:13:13;;;;;;;;;;;10.10;99.90;;;;;;5055042;28;19909;-79
2022/02/08 10:23:52;;;;;;;;;;;10.80;99.90;;;;;;5055250;28;19966;-79
2022/02/08 10:26:25;;;;;;;;;;;10.90;99.90;;;;;;5055020;28;19913;-79
2022/02/08 10:28:57;;;;;;;;;;;11.10;99.90;;;;;;5055041;28;19944;-79
2022/02/08 10:39:26;;;;;;;;;;;11.30;99.90;;;;;;5054425;28;19919;-79
2022/02/08 10:41:53;;;;;;;;;;;10.80;99.90;;;;;;5054811;28;19916;-79
2022/02/08 10:44:19;;;;;;;;;;;11.00;99.90;;;;;;5054458;28;20327;-80
2022/02/08 10:46:45;;;;;;;;;;;11.20;99.90;;;;;;5054495;28;19909;-79
2022/02/08 10:49:13;;;;;;;;;;;11.30;99.90;;;;;;5054374;28;19916;-79
2022/02/08 10:51:52;;;;;;;;;;;11.70;99.90;;;;;;5054571;28;19909;-79
2022/02/08 10:54:36;;;;;;;;;;;11.60;99.90;;;;;;5054987;28;19916;-79
2022/02/08 10:57:09;;;;;;;;;;;11.80;99.90;;;;;;5036059;28;19999;-79
2022/02/08 10:59:42;;;;;;;;;;;12.10;99.90;;;;;;5054194;28;19995;-79
2022/02/08 11:02:18;;;;;;;;;;;12.10;99.90;;;;;;5054418;28;19913;-79
2022/02/08 11:07:24;;;;;;;;;;;11.80;99.90;;;;;;5054012;28;20292;-80
2022/02/08 11:10:11;;;;;;;;;;;11.60;99.90;;;;;;5054533;28;19912;-79
2022/02/08 11:12:48;;;;;;;;;;;11.80;99.90;;;;;;5054280;28;20000;-79
2022/02/08 11:18:14;;;;;;;;;;;11.50;99.90;;;;;;5034053;28;19921;-79
2022/02/08 11:20:52;;;;;;;;;;;11.20;99.90;;;;;;5034213;28;19910;-79
2022/02/08 11:23:33;;;;;;;;;;;11.10;99.90;;;;;;5034148;28;19913;-79
2022/02/08 11:26:00;;;;;;;;;;;10.80;99.90;;;;;;5034168;28;19916;-79
2022/02/08 11:28:34;;;;;;;;;;;10.80;99.90;;;;;;5033750;28;19913;-79
2022/02/08 11:31:20;;;;;;;;;;;10.60;99.90;;;;;;5033809;28;19992;-79
2022/02/08 11:39:05;;;;;;;;;;;10.70;99.90;;;;;;5034130;28;19916;-79
2022/02/08 11:51:33;;;;;;;;;;;10.60;99.90;;;;;;5033273;28;19910;-79
2022/02/08 11:53:26;;;;;;;;;;;10.70;99.90;;;;;;5026057;28;19910;-79
2022/02/08 12:01:34;;;;;;;;;;;11.30;99.90;;;;;;5033984;28;20405;-80
2022/02/08 12:04:18;;;;;;;;;;;10.90;99.90;;;;;;5016209;28;19909;-79
2022/02/08 12:09:29;;;;;;;;;;;10.90;99.90;;;;;;5033024;28;19958;-79
2022/02/08 12:29:23;;;;;;;;;;;11.30;99.90;;;;;;5053124;28;19932;-79
2022/02/08 12:32:09;;;;;;;;;;;11.40;99.90;;;;;;5052743;28;20392;-80
2022/02/08 12:34:28;;;;;;;;;;;11.40;99.90;;;;;;5044599;28;20327;-80
2022/02/08 12:59:57;;;;;;;;;;;10.90;99.90;;;;;;5056368;28;20330;-79
2022/02/08 13:02:25;;;;;;;;;;;11.20;99.90;;;;;;5055887;28;19909;-79
2022/02/08 14:01:57;;;;;;;;;;;11.90;99.90;;;;;;5055368;28;19999;-79
2022/02/08 14:07:15;;;;;;;;;;;12.10;99.90;;;;;;5055588;28;19970;-79
2022/02/08 14:09:55;;;;;;;;;;;11.90;99.90;;;;;;5055295;28;20288;-79
2022/02/08 14:15:30;;;;;;;;;;;12.00;99.90;;;;;;5055136;28;19916;-80
2022/02/08 14:18:13;;;;;;;;;;;12.10;99.90;;;;;;5035329;28;20289;-79
2022/02/08 14:21:05;;;;;;;;;;;11.90;99.90;;;;;;5035657;28;19910;-79
2022/02/08 15:08:55;;;;;;;;;;;10.80;99.90;;;;;;5033903;28;19955;-79
2022/02/08 15:11:21;;;;;;;;;;;10.80;99.90;;;;;;5034018;28;19913;-80
2022/02/08 15:13:49;;;;;;;;;;;10.80;99.90;;;;;;5034593;28;19950;-79
2022/02/08 15:16:28;;;;;;;;;;;10.60;99.90;;;;;;5041312;28;19924;-79
2022/02/08 15:18:55;;;;;;;;;;;10.70;99.90;;;;;;5054053;28;19948;-79
2022/02/08 15:21:27;;;;;;;;;;;10.70;99.90;;;;;;5053704;28;19909;-79
2022/02/08 15:23:53;;;;;;;;;;;10.70;99.90;;;;;;5054107;28;19915;-80
2022/02/08 15:26:19;;;;;;;;;;;10.90;99.90;;;;;;5053970;28;19909;-80
2022/02/08 15:28:44;;;;;;;;;;;10.80;99.90;;;;;;5053680;28;19909;-79
2022/02/08 15:31:10;;;;;;;;;;;10.90;99.90;;;;;;5053675;28;19908;-80
2022/02/08 15:33:36;;;;;;;;;;;11.00;99.90;;;;;;5053781;28;19952;-79
2022/02/08 15:36:01;;;;;;;;;;;10.80;99.90;;;;;;5053825;28;19979;-79
2022/02/08 15:38:29;;;;;;;;;;;10.70;99.90;;;;;;5053551;28;20398;-80
2022/02/08 15:40:56;;;;;;;;;;;10.80;99.90;;;;;;5053544;28;20361;-79
2022/02/08 15:43:21;;;;;;;;;;;10.90;99.90;;;;;;5053489;28;19909;-80
2022/02/08 15:45:54;;;;;;;;;;;10.90;99.90;;;;;;5053926;28;19931;-80
2022/02/08 15:48:23;;;;;;;;;;;11.00;99.90;;;;;;5053507;28;20401;-80
2022/02/08 15:51:01;;;;;;;;;;;10.90;99.90;;;;;;5053380;28;19909;-79
2022/02/08 16:00:05;;;;;;;;;;;10.80;99.90;;;;;;5053252;28;19974;-78
2022/02/08 16:01:16;;;;;;;;;;;10.80;99.90;;;;;;5052919;28;19909;-79
2022/02/08 16:17:27;;;;;;;;;;;11.30;99.90;;;;;;5055206;28;20584;-79
2022/02/08 16:52:04;;;;;;;;;;;11.20;99.90;;;;;;5056473;28;19915;-80
2022/02/08 16:57:18;;;;;;;;;;;11.20;99.90;;;;;;5056758;28;19916;-79
2022/02/08 16:59:20;;;;;;;;;;;11.20;99.90;;;;;;5045572;28;19924;-79
2022/02/08 17:01:46;;;;;;;;;;;11.30;99.90;;;;;;5056488;28;19913;-79
2022/02/08 17:04:11;;;;;;;;;;;11.20;99.90;;;;;;5038498;28;20388;-79
2022/02/08 17:06:37;;;;;;;;;;;11.30;99.90;;;;;;5056884;28;19915;-80
2022/02/08 17:09:10;;;;;;;;;;;11.30;99.90;;;;;;5056357;28;19992;-79
2022/02/08 17:11:56;;;;;;;;;;;11.20;99.90;;;;;;5056879;28;20436;-79
2022/02/08 17:14:45;;;;;;;;;;;11.10;99.90;;;;;;5056284;28;19913;-79
2022/02/08 17:17:43;;;;;;;;;;;11.20;99.90;;;;;;5034766;28;19948;-79
2022/02/08 17:47:50;;;;;;;;;;;10.80;99.90;;;;;;5035920;28;19916;-80
2022/02/08 17:49:50;;;;;;;;;;;10.60;99.90;;;;;;5028330;28;20476;-79
2022/02/08 17:52:16;;;;;;;;;;;10.80;99.90;;;;;;5036137;28;19909;-79
2022/02/08 17:54:41;;;;;;;;;;;10.70;99.90;;;;;;5035624;28;19909;-79
2022/02/08 17:57:07;;;;;;;;;;;10.70;99.90;;;;;;5034220;28;19909;-79
2022/02/08 17:59:35;;;;;;;;;;;10.60;99.90;;;;;;5035726;28;20289;-79
2022/02/08 18:02:00;;;;;;;;;;;10.50;99.90;;;;;;5035205;28;19916;-79
2022/02/08 18:04:26;;;;;;;;;;;10.30;99.90;;;;;;5034836;28;19910;-79
2022/02/08 18:06:51;;;;;;;;;;;10.30;99.90;;;;;;5034787;28;20263;-79
2022/02/08 18:09:19;;;;;;;;;;;10.30;99.90;;;;;;5035211;28;19909;-79
2022/02/08 18:11:45;;;;;;;;;;;10.30;99.90;;;;;;5035569;28;19909;-79
2022/02/08 18:14:16;;;;;;;;;;;10.40;99.90;;;;;;5033879;28;20274;-79
2022/02/08 18:16:41;;;;;;;;;;;10.30;99.90;;;;;;5046181;28;19968;-79
2022/02/08 18:19:14;;;;;;;;;;;10.40;99.90;;;;;;5054349;28;20365;-79
2022/02/08 18:21:47;;;;;;;;;;;10.30;99.90;;;;;;5053078;28;19913;-79
2022/02/08 18:24:27;;;;;;;;;;;10.30;99.90;;;;;;5053051;28;19959;-79
2022/02/08 18:27:26;;;;;;;;;;;10.20;99.90;;;;;;5034984;28;19915;-79
2022/02/08 19:16:00;;;;;;;;;;;10.50;99.90;;;;;;5053769;28;19908;-79
2022/02/08 19:21:08;;;;;;;;;;;10.30;99.90;;;;;;5054197;28;20019;-79
2022/02/08 19:23:35;;;;;;;;;;;10.20;99.90;;;;;;5054040;28;19947;-79
2022/02/08 19:26:01;;;;;;;;;;;10.20;99.90;;;;;;5035915;28;19935;-79
2022/02/08 19:28:27;;;;;;;;;;;10.20;99.90;;;;;;5054318;28;19909;-79
2022/02/08 19:30:53;;;;;;;;;;;10.20;99.90;;;;;;5053701;28;20082;-79
2022/02/08 19:33:21;;;;;;;;;;;10.20;99.90;;;;;;5053585;28;19909;-79
2022/02/08 19:35:47;;;;;;;;;;;10.20;99.90;;;;;;5035769;28;19916;-79
2022/02/08 19:38:16;;;;;;;;;;;10.00;99.90;;;;;;5053605;28;19912;-79
2022/02/08 19:40:41;;;;;;;;;;;9.90;99.90;;;;;;5053748;28;19920;-79
2022/02/08 19:43:07;;;;;;;;;;;9.70;99.90;;;;;;5035698;28;19909;-79
2022/02/08 19:45:40;;;;;;;;;;;9.80;99.90;;;;;;5053516;28;19909;-79
2022/02/08 19:48:05;;;;;;;;;;;9.70;99.90;;;;;;5035371;28;19909;-80
2022/02/08 19:50:32;;;;;;;;;;;9.90;99.90;;;;;;5053383;28;19931;-79
2022/02/08 19:52:58;;;;;;;;;;;10.00;99.90;;;;;;5053399;28;19908;-79
2022/02/08 19:55:44;;;;;;;;;;;10.00;99.90;;;;;;5053334;28;19919;-79
2022/02/08 19:58:18;;;;;;;;;;;9.80;99.90;;;;;;5035104;28;19913;-79
2022/02/08 20:00:54;;;;;;;;;;;9.80;99.90;;;;;;5053438;28;19952;-79
2022/02/08 20:03:20;;;;;;;;;;;9.80;99.90;;;;;;5053371;28;20377;-79
2022/02/08 20:05:47;;;;;;;;;;;9.80;99.90;;;;;;5035436;28;20004;-79
2022/02/08 20:08:12;;;;;;;;;;;9.70;99.90;;;;;;5035396;28;19913;-79
2022/02/08 20:10:38;;;;;;;;;;;9.50;99.90;;;;;;5053269;28;20426;-79
2022/02/08 20:13:03;;;;;;;;;;;9.40;99.90;;;;;;5053207;28;19919;-79
2022/02/08 20:15:29;;;;;;;;;;;9.20;99.90;;;;;;5053329;28;19909;-79
2022/02/08 20:17:55;;;;;;;;;;;9.20;99.90;;;;;;5053399;28;20345;-79
2022/02/08 20:20:23;;;;;;;;;;;9.20;99.90;;;;;;5053201;28;20048;-79
2022/02/08 20:22:56;;;;;;;;;;;9.20;99.90;;;;;;5053119;28;20274;-79
2022/02/08 20:25:23;;;;;;;;;;;9.20;99.90;;;;;;5035018;28;19909;-79
2022/02/08 20:27:51;;;;;;;;;;;9.20;99.90;;;;;;5053062;28;19940;-79
2022/02/08 20:30:21;;;;;;;;;;;9.40;99.90;;;;;;5053146;28;19951;-79
2022/02/08 20:32:47;;;;;;;;;;;9.20;99.90;;;;;;5052991;28;19913;-79
2022/02/08 20:35:12;;;;;;;;;;;9.10;99.90;;;;;;5035140;28;19924;-79
2022/02/08 20:37:41;;;;;;;;;;;9.20;99.90;;;;;;5053266;28;20400;-80
2022/02/08 20:40:07;;;;;;;;;;;9.20;99.90;;;;;;5052961;28;19963;-79
2022/02/08 20:42:33;;;;;;;;;;;9.20;99.90;;;;;;5052888;28;19951;-79
2022/02/08 20:44:59;;;;;;;;;;;9.30;99.90;;;;;;5052951;28;19948;-79
2022/02/08 20:47:26;;;;;;;;;;;9.30;99.90;;;;;;5035052;28;19909;-79
2022/02/08 20:49:58;;;;;;;;;;;9.40;99.90;;;;;;5053482;28;19916;-79
2022/02/08 20:52:24;;;;;;;;;;;9.30;99.90;;;;;;5034710;28;19913;-79
2022/02/08 20:54:51;;;;;;;;;;;9.30;99.90;;;;;;5052853;28;19909;-79
2022/02/08 20:57:22;;;;;;;;;;;9.20;99.90;;;;;;5034903;28;19916;-79
2022/02/08 20:59:49;;;;;;;;;;;9.20;99.90;;;;;;5052975;28;19958;-79
2022/02/08 21:02:16;;;;;;;;;;;9.20;99.90;;;;;;5053520;28;19913;-79
2022/02/08 21:04:54;;;;;;;;;;;9.30;99.90;;;;;;5056412;28;19908;-79
2022/02/08 21:07:20;;;;;;;;;;;9.30;99.90;;;;;;5056571;28;19908;-79
2022/02/08 21:09:45;;;;;;;;;;;9.20;99.90;;;;;;5056562;28;19909;-79
2022/02/08 21:12:28;;;;;;;;;;;9.10;99.90;;;;;;5038442;28;19958;-79
2022/02/08 21:14:54;;;;;;;;;;;9.00;99.90;;;;;;5038055;28;19909;-79
2022/02/08 21:17:20;;;;;;;;;;;9.10;99.90;;;;;;5055821;28;20385;-79
2022/02/08 21:19:45;;;;;;;;;;;9.10;99.90;;;;;;5056082;28;19913;-79
2022/02/08 21:22:11;;;;;;;;;;;9.10;99.90;;;;;;5056065;28;20340;-79
2022/02/08 21:24:37;;;;;;;;;;;9.10;99.90;;;;;;5038182;28;19908;-79
2022/02/08 21:27:07;;;;;;;;;;;9.20;99.90;;;;;;5037993;28;20150;-79
2022/02/08 21:53:22;;;;;;;;;;;9.20;99.90;;;;;;5055438;28;20372;-79
2022/02/08 21:55:49;;;;;;;;;;;9.20;99.90;;;;;;5055560;28;19908;-80
2022/02/08 21:58:16;;;;;;;;;;;9.30;99.90;;;;;;5055332;28;20010;-79
2022/02/08 22:00:43;;;;;;;;;;;9.40;99.90;;;;;;5055398;28;19909;-79
2022/02/08 22:03:08;;;;;;;;;;;9.50;99.90;;;;;;5055481;28;19931;-79
2022/02/08 22:05:34;;;;;;;;;;;9.30;99.90;;;;;;5055303;28;20381;-79
2022/02/08 22:16:03;;;;;;;;;;;9.20;99.90;;;;;;5054363;28;20008;-79
2022/02/08 22:21:22;;;;;;;;;;;9.20;99.90;;;;;;5055221;28;20387;-79
2022/02/08 22:23:56;;;;;;;;;;;8.90;99.90;;;;;;5055069;28;20373;-79
2022/02/08 22:29:19;;;;;;;;;;;8.90;99.90;;;;;;5054643;28;19909;-79
2022/02/08 22:31:50;;;;;;;;;;;8.90;99.90;;;;;;5036661;28;19909;-79
2022/02/08 22:34:53;;;;;;;;;;;8.90;99.90;;;;;;5054854;28;19909;-79
2022/02/08 22:37:22;;;;;;;;;;;8.90;99.90;;;;;;5051514;28;20019;-79
2022/02/08 22:39:59;;;;;;;;;;;8.80;99.90;;;;;;5054697;28;19920;-79
2022/02/08 22:42:32;;;;;;;;;;;8.60;99.90;;;;;;5054607;28;20000;-79
2022/02/08 22:44:59;;;;;;;;;;;8.70;99.90;;;;;;5054790;28;19908;-79
2022/02/08 22:47:25;;;;;;;;;;;8.70;99.90;;;;;;5054576;28;19999;-79
2022/02/08 22:49:51;;;;;;;;;;;8.60;99.90;;;;;;5054554;28;20357;-79
2022/02/08 22:52:17;;;;;;;;;;;8.60;99.90;;;;;;5054305;28;19995;-79